createdAt,value
2022-10-04T00:04:34.652Z,94.30
2022-10-04T00:09:59.928Z,94.62
2022-10-04T00:15:33.934Z,95.18
2022-10-04T00:20:59.662Z,94.06
2022-10-04T00:26:23.988Z,93.27
2022-10-04T00:32:10.267Z,94.13
2022-10-04T00:37:55.673Z,94.90
2022-10-04T00:43:38.925Z,94.71
2022-10-04T00:49:08.539Z,94.52
2022-10-04T00:54:41.381Z,93.73
2022-10-04T01:00:11.140Z,92.86
2022-10-04T01:05:37.778Z,92.96
2022-10-04T01:11:04.747Z,92.95
2022-10-04T01:16:29.408Z,94.70
2022-10-04T01:22:13.939Z,94.68
2022-10-04T01:27:41.152Z,95.67
2022-10-04T01:33:03.428Z,95.89
2022-10-04T01:38:25.233Z,94.89
2022-10-04T01:43:54.478Z,93.31
2022-10-04T01:49:19.966Z,92.45
2022-10-04T01:54:46.485Z,92.36
2022-10-04T02:00:12.306Z,93.95
2022-10-04T02:05:38.713Z,93.87
2022-10-04T02:11:03.289Z,93.76
2022-10-04T02:16:26.401Z,93.86
2022-10-04T02:21:49.580Z,93.73
2022-10-04T02:27:12.138Z,94.79
2022-10-04T02:32:53.453Z,96.16
2022-10-04T02:38:22.153Z,94.69
2022-10-04T02:43:52.943Z,94.93
2022-10-04T02:49:21.790Z,95.02
2022-10-04T02:54:48.912Z,94.74
2022-10-04T03:00:16.658Z,94.92
2022-10-04T03:05:40.464Z,94.16
2022-10-04T03:11:04.337Z,93.36
2022-10-04T03:16:26.508Z,92.99
2022-10-04T03:21:51.555Z,92.85
2022-10-04T03:27:33.904Z,93.60
2022-10-04T03:32:56.209Z,94.97
2022-10-04T03:38:18.547Z,95.23
2022-10-04T03:43:50.260Z,94.76
2022-10-04T03:49:31.626Z,93.98
2022-10-04T03:54:56.621Z,93.22
2022-10-04T04:00:19.430Z,93.98
2022-10-04T04:05:50.068Z,94.29
2022-10-04T04:11:21.474Z,94.65
2022-10-04T04:16:43.536Z,93.08
2022-10-04T04:22:05.373Z,94.17
2022-10-04T04:27:29.857Z,94.06
2022-10-04T04:32:56.481Z,94.24
2022-10-04T04:38:22.354Z,95.23
2022-10-04T04:43:44.903Z,93.79
2022-10-04T04:49:06.766Z,94.54
2022-10-04T04:54:28.591Z,93.31
2022-10-04T04:59:55.844Z,92.40
2022-10-04T05:05:28.538Z,92.47
2022-10-04T05:11:16.007Z,91.47
2022-10-04T05:16:43.422Z,91.99
2022-10-04T05:22:14.478Z,91.71
2022-10-04T05:27:39.596Z,92.85
2022-10-04T05:33:05.172Z,92.99
2022-10-04T05:38:40.110Z,92.13
2022-10-04T05:44:02.469Z,92.09
2022-10-04T05:49:28.500Z,93.03
2022-10-04T05:55:16.031Z,93.53
2022-10-04T06:00:51.985Z,92.45
2022-10-04T06:06:22.849Z,92.26
2022-10-04T06:12:07.755Z,91.53
2022-10-04T06:17:54.388Z,90.99
2022-10-04T06:23:18.515Z,92.53
2022-10-04T06:28:47.986Z,92.71
2022-10-04T06:34:22.854Z,94.11
2022-10-04T06:39:56.281Z,93.14
2022-10-04T06:45:36.048Z,92.06
2022-10-04T06:51:16.894Z,92.16
2022-10-04T06:57:01.634Z,92.58
2022-10-04T07:02:34.276Z,91.21
2022-10-04T07:08:36.793Z,90.21
2022-10-04T07:14:13.443Z,89.90
2022-10-04T07:19:40.002Z,89.15
2022-10-04T07:25:24.292Z,88.62
2022-10-04T07:30:55.870Z,88.80
2022-10-04T07:36:24.620Z,89.45
2022-10-04T07:41:55.070Z,89.12
2022-10-04T07:47:29.879Z,89.22
2022-10-04T07:53:09.157Z,88.62
2022-10-04T07:58:43.299Z,88.55
2022-10-04T08:04:32.544Z,88.37
2022-10-04T08:10:25.734Z,88.30
2022-10-04T08:15:47.840Z,88.83
2022-10-04T08:21:16.874Z,88.36
2022-10-04T08:27:20.722Z,88.34
2022-10-04T08:33:06.298Z,88.50
2022-10-04T08:38:57.028Z,88.60
2022-10-04T08:44:46.836Z,88.13
2022-10-04T08:50:39.419Z,87.24
2022-10-04T08:56:27.009Z,87.48
2022-10-04T09:02:35.339Z,85.78
2022-10-04T09:08:04.348Z,85.52
2022-10-04T09:13:47.927Z,84.64
2022-10-04T09:19:46.501Z,85.49
2022-10-04T09:25:32.477Z,85.23
2022-10-04T09:31:06.512Z,84.42
2022-10-04T09:36:41.339Z,84.18
2022-10-04T09:42:34.238Z,84.37
2022-10-04T09:48:25.082Z,83.63
2022-10-04T09:54:04.352Z,82.84
2022-10-04T09:59:37.610Z,83.37
2022-10-04T10:05:16.764Z,81.66
2022-10-04T10:11:03.304Z,80.11
2022-10-04T10:16:33.970Z,78.84
2022-10-04T10:22:31.069Z,79.64
2022-10-04T10:28:02.891Z,80.82
2022-10-04T10:34:13.214Z,79.75
2022-10-04T10:39:49.286Z,79.21
2022-10-04T10:45:29.693Z,78.17
2022-10-04T10:51:03.472Z,77.49
2022-10-04T10:56:42.415Z,76.23
2022-10-04T11:02:52.052Z,75.04
2022-10-04T11:08:27.709Z,76.01
2022-10-04T11:14:20.224Z,74.69
2022-10-04T11:19:50.941Z,77.18
2022-10-04T11:25:25.091Z,77.61
2022-10-04T11:31:11.353Z,76.97
2022-10-04T11:36:45.693Z,77.31
2022-10-04T11:42:30.198Z,77.95
2022-10-04T11:48:11.279Z,78.21
2022-10-04T11:54:04.091Z,75.56
2022-10-04T11:59:45.371Z,75.99
2022-10-04T12:05:26.689Z,74.86
2022-10-04T12:11:53.903Z,74.14
2022-10-04T12:17:15.798Z,73.27
2022-10-04T12:22:42.865Z,72.08
2022-10-04T12:28:20.350Z,73.02
2022-10-04T12:33:53.957Z,75.00
2022-10-04T12:39:52.937Z,74.74
2022-10-04T12:45:27.636Z,73.15
2022-10-04T12:51:00.205Z,71.54
2022-10-04T12:56:47.260Z,71.54
2022-10-04T13:02:21.843Z,71.70
2022-10-04T13:07:55.783Z,71.34
2022-10-04T13:13:23.736Z,70.61
2022-10-04T13:18:56.765Z,70.00
2022-10-04T13:24:55.535Z,69.00
2022-10-04T13:30:36.981Z,70.87
2022-10-04T13:36:12.053Z,70.34
2022-10-04T13:41:51.566Z,70.16
2022-10-04T13:47:42.330Z,70.13
2022-10-04T13:53:25.356Z,69.13
2022-10-04T13:58:57.712Z,69.10
2022-10-04T14:04:34.701Z,68.54
2022-10-04T14:10:27.681Z,67.79
2022-10-04T14:16:08.242Z,68.04
2022-10-04T14:21:52.214Z,68.57
2022-10-04T14:27:32.792Z,67.46
2022-10-04T14:33:25.979Z,67.03
2022-10-04T14:39:06.185Z,67.14
2022-10-04T14:44:45.046Z,67.02
2022-10-04T14:50:21.776Z,66.74
2022-10-04T14:55:57.571Z,67.48
2022-10-04T15:01:25.215Z,67.72
2022-10-04T15:07:04.308Z,67.08
2022-10-04T15:12:58.558Z,67.75
2022-10-04T15:18:38.986Z,68.19
2022-10-04T15:24:24.161Z,69.26
2022-10-04T15:30:18.313Z,69.22
2022-10-04T15:36:13.544Z,70.08
2022-10-04T15:41:56.680Z,70.28
2022-10-04T15:47:53.613Z,70.50
2022-10-04T15:53:40.247Z,70.63
2022-10-04T15:59:30.571Z,71.16
2022-10-04T16:05:19.009Z,71.82
2022-10-04T16:11:14.430Z,72.37
2022-10-04T16:16:39.769Z,72.86
2022-10-04T16:22:29.085Z,73.05
2022-10-04T16:28:05.845Z,73.47
2022-10-04T16:33:42.876Z,75.53
2022-10-04T16:39:24.069Z,74.74
2022-10-04T16:44:54.838Z,74.83
2022-10-04T16:50:54.475Z,74.87
2022-10-04T16:56:20.348Z,74.85
2022-10-04T17:02:03.398Z,75.40
2022-10-04T17:07:37.179Z,75.84
2022-10-04T17:13:50.765Z,77.11
2022-10-04T17:19:32.532Z,77.64
2022-10-04T17:25:03.272Z,78.32
2022-10-04T17:30:27.943Z,78.85
2022-10-04T17:36:18.385Z,79.68
2022-10-04T17:42:08.798Z,80.96
2022-10-04T17:48:04.231Z,81.09
2022-10-04T17:53:48.666Z,81.40
2022-10-04T17:59:15.947Z,81.67
2022-10-04T18:04:59.961Z,82.07
2022-10-04T18:10:50.488Z,82.77
2022-10-04T18:16:24.327Z,83.69
2022-10-04T18:21:52.445Z,83.44
2022-10-04T18:27:25.196Z,83.11
2022-10-04T18:32:57.391Z,83.37
2022-10-04T18:38:26.938Z,84.90
2022-10-04T18:43:57.906Z,83.95
2022-10-04T18:49:24.535Z,83.59
2022-10-04T18:55:02.561Z,85.28
2022-10-04T19:00:49.734Z,85.76
2022-10-04T19:06:30.498Z,86.50
2022-10-04T19:12:13.375Z,87.15
2022-10-04T19:18:06.453Z,87.14
2022-10-04T19:23:41.243Z,87.04
2022-10-04T19:29:18.116Z,88.36
2022-10-04T19:35:16.473Z,86.91
2022-10-04T19:40:48.626Z,87.71
2022-10-04T19:46:32.110Z,88.48
2022-10-04T19:52:17.418Z,88.89
2022-10-04T19:57:40.217Z,89.13
2022-10-04T20:03:02.070Z,89.14
2022-10-04T20:08:48.830Z,88.74
2022-10-04T20:14:16.893Z,89.48
2022-10-04T20:19:41.544Z,89.69
2022-10-04T20:25:03.709Z,90.33
2022-10-04T20:30:25.548Z,90.53
2022-10-04T20:36:02.201Z,89.81
2022-10-04T20:41:30.135Z,90.57
2022-10-04T20:46:52.027Z,90.62
2022-10-04T20:52:17.009Z,90.09
2022-10-04T20:57:40.662Z,89.54
2022-10-04T21:03:10.217Z,89.22
2022-10-04T21:08:32.592Z,89.35
2022-10-04T21:13:59.707Z,89.37
2022-10-04T21:19:33.852Z,89.97
2022-10-04T21:24:57.036Z,91.03
2022-10-04T21:30:19.742Z,91.24
2022-10-04T21:35:41.468Z,90.90
2022-10-04T21:41:03.728Z,90.40
2022-10-04T21:46:25.504Z,91.54
2022-10-04T21:51:47.236Z,91.93
2022-10-04T21:57:08.940Z,91.32
2022-10-04T22:02:30.815Z,91.49
2022-10-04T22:07:52.671Z,92.24
2022-10-04T22:13:14.928Z,93.00
2022-10-04T22:18:36.694Z,94.00
2022-10-04T22:23:58.645Z,95.33
2022-10-04T22:29:20.657Z,96.25
2022-10-04T22:34:42.345Z,97.43
2022-10-04T22:40:04.653Z,98.20
2022-10-04T22:45:33.351Z,98.06
2022-10-04T22:50:55.177Z,97.63
2022-10-04T22:56:16.947Z,97.12
2022-10-04T23:01:39.290Z,97.74
2022-10-04T23:07:00.976Z,95.88
2022-10-04T23:12:22.719Z,95.04
2022-10-04T23:17:46.408Z,95.66
2022-10-04T23:23:21.009Z,96.98
2022-10-04T23:28:42.685Z,97.54
2022-10-04T23:34:15.660Z,97.87
2022-10-04T23:39:37.513Z,96.71
2022-10-04T23:45:01.322Z,96.89
2022-10-04T23:50:32.843Z,95.84
2022-10-04T23:55:56.324Z,95.14
